sensor_id;sensor_type;location;lat;lon;timestamp;P1;durP1;ratioP1;P2;durP2;ratioP2
11691;SDS011;33659;42.672;23.354;2023-06-10T00:00:15;6.57;;;5.25;;
11691;SDS011;33659;42.672;23.354;2023-06-10T00:02:42;5.35;;;4.80;;
11691;SDS011;33659;42.672;23.354;2023-06-10T00:05:10;6.53;;;4.88;;
11691;SDS011;33659;42.672;23.354;2023-06-10T00:07:37;9.10;;;4.65;;
11691;SDS011;33659;42.672;23.354;2023-06-10T00:10:04;7.93;;;4.63;;
11691;SDS011;33659;42.672;23.354;2023-06-10T00:12:31;5.72;;;4.53;;
11691;SDS011;33659;42.672;23.354;2023-06-10T00:15:02;8.13;;;4.63;;
11691;SDS011;33659;42.672;23.354;2023-06-10T00:17:29;7.38;;;4.88;;
11691;SDS011;33659;42.672;23.354;2023-06-10T00:19:57;7.35;;;4.70;;
11691;SDS011;33659;42.672;23.354;2023-06-10T00:22:25;7.75;;;4.35;;
11691;SDS011;33659;42.672;23.354;2023-06-10T00:24:54;6.40;;;4.50;;
11691;SDS011;33659;42.672;23.354;2023-06-10T00:27:21;8.82;;;4.63;;
11691;SDS011;33659;42.672;23.354;2023-06-10T00:29:48;6.13;;;4.72;;
11691;SDS011;33659;42.672;23.354;2023-06-10T00:32:15;5.85;;;5.25;;
11691;SDS011;33659;42.672;23.354;2023-06-10T00:34:42;5.57;;;4.68;;
11691;SDS011;33659;42.672;23.354;2023-06-10T00:37:08;5.00;;;4.50;;
11691;SDS011;33659;42.672;23.354;2023-06-10T00:39:36;7.18;;;5.03;;
11691;SDS011;33659;42.672;23.354;2023-06-10T00:42:03;6.88;;;5.13;;
11691;SDS011;33659;42.672;23.354;2023-06-10T00:44:32;5.90;;;4.57;;
11691;SDS011;33659;42.672;23.354;2023-06-10T00:46:58;10.60;;;5.18;;
11691;SDS011;33659;42.672;23.354;2023-06-10T00:49:25;5.18;;;4.68;;
11691;SDS011;33659;42.672;23.354;2023-06-10T00:51:52;6.88;;;5.03;;
11691;SDS011;33659;42.672;23.354;2023-06-10T00:54:19;10.63;;;5.57;;
11691;SDS011;33659;42.672;23.354;2023-06-10T00:56:48;6.00;;;5.40;;
11691;SDS011;33659;42.672;23.354;2023-06-10T00:59:16;8.23;;;6.95;;
11691;SDS011;33659;42.672;23.354;2023-06-10T01:01:43;8.38;;;6.75;;
11691;SDS011;33659;42.672;23.354;2023-06-10T01:04:12;8.55;;;5.95;;
11691;SDS011;33659;42.672;23.354;2023-06-10T01:06:41;6.32;;;5.72;;
11691;SDS011;33659;42.672;23.354;2023-06-10T01:09:23;9.43;;;5.93;;
11691;SDS011;33659;42.672;23.354;2023-06-10T01:12:00;10.05;;;6.10;;
11691;SDS011;33659;42.672;23.354;2023-06-10T01:14:34;10.18;;;6.90;;
11691;SDS011;33659;42.672;23.354;2023-06-10T01:17:01;10.45;;;7.47;;
11691;SDS011;33659;42.672;23.354;2023-06-10T01:19:29;10.52;;;6.78;;
11691;SDS011;33659;42.672;23.354;2023-06-10T01:21:58;7.97;;;6.40;;
11691;SDS011;33659;42.672;23.354;2023-06-10T01:24:25;5.68;;;5.07;;
11691;SDS011;33659;42.672;23.354;2023-06-10T01:26:52;7.38;;;6.53;;
11691;SDS011;33659;42.672;23.354;2023-06-10T01:29:24;5.65;;;5.07;;
11691;SDS011;33659;42.672;23.354;2023-06-10T01:31:55;6.28;;;4.97;;
11691;SDS011;33659;42.672;23.354;2023-06-10T01:34:30;10.70;;;4.65;;
11691;SDS011;33659;42.672;23.354;2023-06-10T01:37:00;5.05;;;4.55;;
11691;SDS011;33659;42.672;23.354;2023-06-10T01:39:28;5.32;;;4.40;;
11691;SDS011;33659;42.672;23.354;2023-06-10T01:41:57;7.95;;;5.15;;
11691;SDS011;33659;42.672;23.354;2023-06-10T01:44:24;5.35;;;4.85;;
11691;SDS011;33659;42.672;23.354;2023-06-10T01:46:51;6.22;;;4.85;;
11691;SDS011;33659;42.672;23.354;2023-06-10T01:49:17;5.60;;;5.00;;
11691;SDS011;33659;42.672;23.354;2023-06-10T01:51:44;6.45;;;5.53;;
11691;SDS011;33659;42.672;23.354;2023-06-10T01:54:12;9.20;;;5.07;;
11691;SDS011;33659;42.672;23.354;2023-06-10T01:56:39;8.13;;;5.57;;
11691;SDS011;33659;42.672;23.354;2023-06-10T01:59:05;10.63;;;5.53;;
11691;SDS011;33659;42.672;23.354;2023-06-10T02:01:33;8.30;;;6.00;;
11691;SDS011;33659;42.672;23.354;2023-06-10T02:03:59;8.77;;;6.03;;
11691;SDS011;33659;42.672;23.354;2023-06-10T02:06:26;6.25;;;4.88;;
11691;SDS011;33659;42.672;23.354;2023-06-10T02:08:53;8.07;;;5.97;;
11691;SDS011;33659;42.672;23.354;2023-06-10T02:11:21;10.00;;;5.80;;
11691;SDS011;33659;42.672;23.354;2023-06-10T02:13:48;7.05;;;5.65;;
11691;SDS011;33659;42.672;23.354;2023-06-10T02:16:14;7.00;;;6.30;;
11691;SDS011;33659;42.672;23.354;2023-06-10T02:18:42;7.10;;;5.43;;
11691;SDS011;33659;42.672;23.354;2023-06-10T02:21:09;7.32;;;6.32;;
11691;SDS011;33659;42.672;23.354;2023-06-10T02:23:36;11.85;;;6.18;;
11691;SDS011;33659;42.672;23.354;2023-06-10T02:26:03;7.68;;;6.15;;
11691;SDS011;33659;42.672;23.354;2023-06-10T02:28:32;9.05;;;5.88;;
11691;SDS011;33659;42.672;23.354;2023-06-10T02:30:58;10.40;;;5.90;;
11691;SDS011;33659;42.672;23.354;2023-06-10T02:33:25;6.00;;;5.32;;
11691;SDS011;33659;42.672;23.354;2023-06-10T02:35:52;7.82;;;5.90;;
11691;SDS011;33659;42.672;23.354;2023-06-10T02:38:19;7.72;;;6.30;;
11691;SDS011;33659;42.672;23.354;2023-06-10T02:40:45;7.57;;;5.10;;
11691;SDS011;33659;42.672;23.354;2023-06-10T02:43:12;9.48;;;5.63;;
11691;SDS011;33659;42.672;23.354;2023-06-10T02:45:40;6.13;;;5.50;;
11691;SDS011;33659;42.672;23.354;2023-06-10T02:48:07;6.72;;;5.38;;
11691;SDS011;33659;42.672;23.354;2023-06-10T02:50:34;10.63;;;5.88;;
11691;SDS011;33659;42.672;23.354;2023-06-10T02:53:00;9.30;;;5.60;;
11691;SDS011;33659;42.672;23.354;2023-06-10T02:55:27;10.40;;;6.70;;
11691;SDS011;33659;42.672;23.354;2023-06-10T02:57:54;6.57;;;5.78;;
11691;SDS011;33659;42.672;23.354;2023-06-10T03:00:21;7.70;;;6.38;;
11691;SDS011;33659;42.672;23.354;2023-06-10T03:02:49;7.72;;;5.88;;
11691;SDS011;33659;42.672;23.354;2023-06-10T03:05:16;6.78;;;5.85;;
11691;SDS011;33659;42.672;23.354;2023-06-10T03:07:42;6.47;;;5.82;;
11691;SDS011;33659;42.672;23.354;2023-06-10T03:10:12;7.60;;;5.68;;
11691;SDS011;33659;42.672;23.354;2023-06-10T03:12:39;7.82;;;5.60;;
11691;SDS011;33659;42.672;23.354;2023-06-10T03:15:06;7.78;;;5.63;;
11691;SDS011;33659;42.672;23.354;2023-06-10T03:17:33;8.05;;;5.60;;
11691;SDS011;33659;42.672;23.354;2023-06-10T03:20:01;10.95;;;5.55;;
11691;SDS011;33659;42.672;23.354;2023-06-10T03:22:30;8.35;;;6.00;;
11691;SDS011;33659;42.672;23.354;2023-06-10T03:24:57;9.00;;;5.38;;
11691;SDS011;33659;42.672;23.354;2023-06-10T03:27:25;9.32;;;5.43;;
11691;SDS011;33659;42.672;23.354;2023-06-10T03:29:51;7.40;;;6.10;;
11691;SDS011;33659;42.672;23.354;2023-06-10T03:32:18;9.75;;;5.47;;
11691;SDS011;33659;42.672;23.354;2023-06-10T03:34:45;7.72;;;6.03;;
11691;SDS011;33659;42.672;23.354;2023-06-10T03:37:14;8.07;;;6.20;;
11691;SDS011;33659;42.672;23.354;2023-06-10T03:39:40;7.82;;;5.85;;
11691;SDS011;33659;42.672;23.354;2023-06-10T03:42:07;6.75;;;5.70;;
11691;SDS011;33659;42.672;23.354;2023-06-10T03:44:34;6.50;;;5.80;;
11691;SDS011;33659;42.672;23.354;2023-06-10T03:47:01;6.60;;;5.43;;
11691;SDS011;33659;42.672;23.354;2023-06-10T03:49:28;8.02;;;5.47;;
11691;SDS011;33659;42.672;23.354;2023-06-10T03:51:55;11.10;;;6.13;;
11691;SDS011;33659;42.672;23.354;2023-06-10T03:54:23;9.07;;;5.88;;
11691;SDS011;33659;42.672;23.354;2023-06-10T03:56:50;7.55;;;5.57;;
11691;SDS011;33659;42.672;23.354;2023-06-10T03:59:17;8.80;;;5.88;;
11691;SDS011;33659;42.672;23.354;2023-06-10T04:01:43;7.50;;;5.50;;
11691;SDS011;33659;42.672;23.354;2023-06-10T04:04:13;8.52;;;5.85;;
11691;SDS011;33659;42.672;23.354;2023-06-10T04:06:44;13.50;;;5.55;;
11691;SDS011;33659;42.672;23.354;2023-06-10T04:09:11;6.55;;;4.82;;
11691;SDS011;33659;42.672;23.354;2023-06-10T04:11:40;8.27;;;5.30;;
11691;SDS011;33659;42.672;23.354;2023-06-10T04:14:06;8.63;;;5.15;;
11691;SDS011;33659;42.672;23.354;2023-06-10T04:16:33;5.25;;;4.75;;
11691;SDS011;33659;42.672;23.354;2023-06-10T04:19:00;8.00;;;4.93;;
11691;SDS011;33659;42.672;23.354;2023-06-10T04:21:27;7.82;;;4.80;;
11691;SDS011;33659;42.672;23.354;2023-06-10T04:23:54;5.30;;;4.80;;
11691;SDS011;33659;42.672;23.354;2023-06-10T04:26:21;5.60;;;5.10;;
11691;SDS011;33659;42.672;23.354;2023-06-10T04:28:49;7.80;;;4.80;;
11691;SDS011;33659;42.672;23.354;2023-06-10T04:31:16;8.55;;;5.22;;
11691;SDS011;33659;42.672;23.354;2023-06-10T04:33:43;8.20;;;4.95;;
11691;SDS011;33659;42.672;23.354;2023-06-10T04:36:09;9.20;;;5.45;;
11691;SDS011;33659;42.672;23.354;2023-06-10T04:38:36;7.55;;;5.20;;
11691;SDS011;33659;42.672;23.354;2023-06-10T04:41:03;6.30;;;4.75;;
11691;SDS011;33659;42.672;23.354;2023-06-10T04:43:30;5.45;;;4.50;;
11691;SDS011;33659;42.672;23.354;2023-06-10T04:45:58;8.82;;;4.95;;
11691;SDS011;33659;42.672;23.354;2023-06-10T04:48:25;5.72;;;5.05;;
11691;SDS011;33659;42.672;23.354;2023-06-10T04:50:51;7.15;;;5.30;;
11691;SDS011;33659;42.672;23.354;2023-06-10T04:53:18;6.80;;;5.88;;
11691;SDS011;33659;42.672;23.354;2023-06-10T04:55:45;11.35;;;6.78;;
11691;SDS011;33659;42.672;23.354;2023-06-10T04:58:13;6.85;;;4.80;;
11691;SDS011;33659;42.672;23.354;2023-06-10T05:00:40;6.93;;;5.43;;
11691;SDS011;33659;42.672;23.354;2023-06-10T05:03:10;7.22;;;5.63;;
11691;SDS011;33659;42.672;23.354;2023-06-10T05:05:37;8.13;;;6.30;;
11691;SDS011;33659;42.672;23.354;2023-06-10T05:08:03;7.72;;;5.50;;
11691;SDS011;33659;42.672;23.354;2023-06-10T05:10:30;8.38;;;6.20;;
11691;SDS011;33659;42.672;23.354;2023-06-10T05:12:57;8.98;;;6.22;;
11691;SDS011;33659;42.672;23.354;2023-06-10T05:15:24;6.90;;;6.22;;
11691;SDS011;33659;42.672;23.354;2023-06-10T05:17:51;9.32;;;6.03;;
11691;SDS011;33659;42.672;23.354;2023-06-10T05:20:19;11.52;;;6.38;;
11691;SDS011;33659;42.672;23.354;2023-06-10T05:22:46;7.50;;;6.35;;
11691;SDS011;33659;42.672;23.354;2023-06-10T05:25:13;7.93;;;6.07;;
11691;SDS011;33659;42.672;23.354;2023-06-10T05:27:40;9.90;;;6.93;;
11691;SDS011;33659;42.672;23.354;2023-06-10T05:30:07;11.30;;;7.80;;
11691;SDS011;33659;42.672;23.354;2023-06-10T05:32:35;13.10;;;8.05;;
11691;SDS011;33659;42.672;23.354;2023-06-10T05:35:02;10.82;;;7.50;;
11691;SDS011;33659;42.672;23.354;2023-06-10T05:37:31;13.05;;;7.07;;
11691;SDS011;33659;42.672;23.354;2023-06-10T05:39:57;14.23;;;7.65;;
11691;SDS011;33659;42.672;23.354;2023-06-10T05:42:24;9.75;;;8.00;;
11691;SDS011;33659;42.672;23.354;2023-06-10T05:44:51;11.38;;;8.30;;
11691;SDS011;33659;42.672;23.354;2023-06-10T05:47:17;12.10;;;8.25;;
11691;SDS011;33659;42.672;23.354;2023-06-10T05:49:44;10.73;;;8.80;;
11691;SDS011;33659;42.672;23.354;2023-06-10T05:52:13;11.93;;;8.55;;
11691;SDS011;33659;42.672;23.354;2023-06-10T05:54:41;13.00;;;9.40;;
11691;SDS011;33659;42.672;23.354;2023-06-10T05:57:08;9.13;;;8.15;;
11691;SDS011;33659;42.672;23.354;2023-06-10T05:59:35;10.73;;;8.57;;
11691;SDS011;33659;42.672;23.354;2023-06-10T06:02:02;9.70;;;7.93;;
11691;SDS011;33659;42.672;23.354;2023-06-10T06:04:29;10.73;;;7.97;;
11691;SDS011;33659;42.672;23.354;2023-06-10T06:06:57;10.98;;;6.88;;
11691;SDS011;33659;42.672;23.354;2023-06-10T06:09:24;9.80;;;6.25;;
11691;SDS011;33659;42.672;23.354;2023-06-10T06:11:52;7.60;;;5.78;;
11691;SDS011;33659;42.672;23.354;2023-06-10T06:14:19;9.63;;;6.07;;
11691;SDS011;33659;42.672;23.354;2023-06-10T06:16:45;7.05;;;5.03;;
11691;SDS011;33659;42.672;23.354;2023-06-10T06:19:12;6.40;;;5.47;;
11691;SDS011;33659;42.672;23.354;2023-06-10T06:21:39;8.02;;;5.43;;
11691;SDS011;33659;42.672;23.354;2023-06-10T06:24:06;8.18;;;5.70;;
11691;SDS011;33659;42.672;23.354;2023-06-10T06:26:33;8.45;;;5.40;;
11691;SDS011;33659;42.672;23.354;2023-06-10T06:29:01;6.53;;;5.82;;
11691;SDS011;33659;42.672;23.354;2023-06-10T06:31:28;6.47;;;5.53;;
11691;SDS011;33659;42.672;23.354;2023-06-10T06:33:54;10.50;;;6.15;;
11691;SDS011;33659;42.672;23.354;2023-06-10T06:36:21;5.68;;;5.07;;
11691;SDS011;33659;42.672;23.354;2023-06-10T06:38:48;5.78;;;4.95;;
11691;SDS011;33659;42.672;23.354;2023-06-10T06:41:15;7.03;;;5.30;;
11691;SDS011;33659;42.672;23.354;2023-06-10T06:43:41;6.32;;;5.30;;
11691;SDS011;33659;42.672;23.354;2023-06-10T06:46:09;7.53;;;4.68;;
11691;SDS011;33659;42.672;23.354;2023-06-10T06:48:36;6.13;;;5.15;;
11691;SDS011;33659;42.672;23.354;2023-06-10T06:51:03;7.57;;;5.20;;
11691;SDS011;33659;42.672;23.354;2023-06-10T06:53:30;9.02;;;5.90;;
11691;SDS011;33659;42.672;23.354;2023-06-10T06:55:56;11.45;;;6.15;;
11691;SDS011;33659;42.672;23.354;2023-06-10T06:58:23;11.38;;;5.72;;
11691;SDS011;33659;42.672;23.354;2023-06-10T07:00:50;7.53;;;5.43;;
11691;SDS011;33659;42.672;23.354;2023-06-10T07:03:18;6.30;;;5.32;;
11691;SDS011;33659;42.672;23.354;2023-06-10T07:05:45;8.30;;;5.50;;
11691;SDS011;33659;42.672;23.354;2023-06-10T07:08:12;10.48;;;5.43;;
11691;SDS011;33659;42.672;23.354;2023-06-10T07:10:38;7.57;;;4.72;;
11691;SDS011;33659;42.672;23.354;2023-06-10T07:13:05;5.72;;;4.88;;
11691;SDS011;33659;42.672;23.354;2023-06-10T07:15:32;8.20;;;4.68;;
11691;SDS011;33659;42.672;23.354;2023-06-10T07:17:59;7.90;;;5.00;;
11691;SDS011;33659;42.672;23.354;2023-06-10T07:20:27;4.47;;;4.07;;
11691;SDS011;33659;42.672;23.354;2023-06-10T07:22:53;5.50;;;4.05;;
11691;SDS011;33659;42.672;23.354;2023-06-10T07:25:20;5.32;;;3.95;;
11691;SDS011;33659;42.672;23.354;2023-06-10T07:27:47;5.38;;;4.22;;
11691;SDS011;33659;42.672;23.354;2023-06-10T07:30:14;6.10;;;3.95;;
11691;SDS011;33659;42.672;23.354;2023-06-10T07:32:40;7.70;;;5.05;;
11691;SDS011;33659;42.672;23.354;2023-06-10T07:35:08;6.15;;;4.18;;
11691;SDS011;33659;42.672;23.354;2023-06-10T07:37:38;10.18;;;4.18;;
11691;SDS011;33659;42.672;23.354;2023-06-10T07:40:05;5.78;;;3.90;;
11691;SDS011;33659;42.672;23.354;2023-06-10T07:42:34;5.18;;;3.60;;
11691;SDS011;33659;42.672;23.354;2023-06-10T07:45:01;7.45;;;4.60;;
11691;SDS011;33659;42.672;23.354;2023-06-10T07:47:28;5.93;;;3.95;;
11691;SDS011;33659;42.672;23.354;2023-06-10T07:49:55;5.95;;;4.15;;
11691;SDS011;33659;42.672;23.354;2023-06-10T07:52:22;7.45;;;5.15;;
11691;SDS011;33659;42.672;23.354;2023-06-10T07:54:50;6.68;;;4.43;;
11691;SDS011;33659;42.672;23.354;2023-06-10T07:57:17;9.10;;;4.00;;
11691;SDS011;33659;42.672;23.354;2023-06-10T07:59:45;5.90;;;4.05;;
11691;SDS011;33659;42.672;23.354;2023-06-10T08:02:12;4.43;;;3.38;;
11691;SDS011;33659;42.672;23.354;2023-06-10T08:04:38;3.67;;;3.30;;
11691;SDS011;33659;42.672;23.354;2023-06-10T08:07:05;7.03;;;3.53;;
11691;SDS011;33659;42.672;23.354;2023-06-10T08:09:32;5.93;;;3.25;;
11691;SDS011;33659;42.672;23.354;2023-06-10T08:12:00;4.32;;;3.33;;
11691;SDS011;33659;42.672;23.354;2023-06-10T08:14:27;5.43;;;3.47;;
11691;SDS011;33659;42.672;23.354;2023-06-10T08:16:54;3.83;;;2.67;;
11691;SDS011;33659;42.672;23.354;2023-06-10T08:19:20;3.80;;;3.03;;
11691;SDS011;33659;42.672;23.354;2023-06-10T08:21:47;20.80;;;11.93;;
11691;SDS011;33659;42.672;23.354;2023-06-10T08:24:14;17.58;;;8.98;;
11691;SDS011;33659;42.672;23.354;2023-06-10T08:26:43;5.07;;;3.55;;
11691;SDS011;33659;42.672;23.354;2023-06-10T08:29:12;6.13;;;3.33;;
11691;SDS011;33659;42.672;23.354;2023-06-10T08:31:41;5.63;;;3.10;;
11691;SDS011;33659;42.672;23.354;2023-06-10T08:34:08;7.05;;;4.35;;
11691;SDS011;33659;42.672;23.354;2023-06-10T08:36:35;7.25;;;4.80;;
11691;SDS011;33659;42.672;23.354;2023-06-10T08:39:02;4.93;;;3.47;;
11691;SDS011;33659;42.672;23.354;2023-06-10T08:41:29;6.47;;;4.50;;
11691;SDS011;33659;42.672;23.354;2023-06-10T08:44:02;4.75;;;3.70;;
11691;SDS011;33659;42.672;23.354;2023-06-10T08:46:34;4.70;;;2.80;;
11691;SDS011;33659;42.672;23.354;2023-06-10T08:49:02;3.20;;;2.90;;
11691;SDS011;33659;42.672;23.354;2023-06-10T08:51:31;3.63;;;3.03;;
11691;SDS011;33659;42.672;23.354;2023-06-10T08:54:01;4.72;;;3.22;;
11691;SDS011;33659;42.672;23.354;2023-06-10T08:56:30;3.00;;;2.70;;
11691;SDS011;33659;42.672;23.354;2023-06-10T08:59:02;3.78;;;2.88;;
11691;SDS011;33659;42.672;23.354;2023-06-10T09:01:29;3.75;;;2.95;;
11691;SDS011;33659;42.672;23.354;2023-06-10T09:03:57;3.75;;;3.10;;
11691;SDS011;33659;42.672;23.354;2023-06-10T09:06:25;3.78;;;2.83;;
11691;SDS011;33659;42.672;23.354;2023-06-10T09:08:53;3.65;;;2.72;;
11691;SDS011;33659;42.672;23.354;2023-06-10T09:11:20;3.83;;;2.72;;
11691;SDS011;33659;42.672;23.354;2023-06-10T09:13:47;4.10;;;2.70;;
11691;SDS011;33659;42.672;23.354;2023-06-10T09:16:13;2.78;;;2.55;;
11691;SDS011;33659;42.672;23.354;2023-06-10T09:18:41;3.42;;;2.50;;
11691;SDS011;33659;42.672;23.354;2023-06-10T09:21:09;5.35;;;3.25;;
11691;SDS011;33659;42.672;23.354;2023-06-10T09:23:36;4.50;;;2.95;;
11691;SDS011;33659;42.672;23.354;2023-06-10T09:26:07;3.90;;;2.33;;
11691;SDS011;33659;42.672;23.354;2023-06-10T09:28:35;3.45;;;2.83;;
11691;SDS011;33659;42.672;23.354;2023-06-10T09:31:02;4.15;;;3.50;;
11691;SDS011;33659;42.672;23.354;2023-06-10T09:33:30;2.78;;;2.33;;
11691;SDS011;33659;42.672;23.354;2023-06-10T09:35:57;2.83;;;2.55;;
11691;SDS011;33659;42.672;23.354;2023-06-10T09:38:30;3.20;;;2.90;;
11691;SDS011;33659;42.672;23.354;2023-06-10T09:40:58;3.60;;;2.80;;
11691;SDS011;33659;42.672;23.354;2023-06-10T09:43:38;2.78;;;2.45;;
11691;SDS011;33659;42.672;23.354;2023-06-10T09:46:06;3.72;;;2.90;;
11691;SDS011;33659;42.672;23.354;2023-06-10T09:48:40;3.35;;;2.20;;
11691;SDS011;33659;42.672;23.354;2023-06-10T09:51:09;3.40;;;2.53;;
11691;SDS011;33659;42.672;23.354;2023-06-10T09:53:37;6.25;;;3.03;;
11691;SDS011;33659;42.672;23.354;2023-06-10T09:56:04;3.13;;;2.22;;
11691;SDS011;33659;42.672;23.354;2023-06-10T09:58:35;3.45;;;2.42;;
11691;SDS011;33659;42.672;23.354;2023-06-10T10:01:04;3.72;;;2.47;;
11691;SDS011;33659;42.672;23.354;2023-06-10T10:03:31;3.08;;;2.78;;
11691;SDS011;33659;42.672;23.354;2023-06-10T10:05:58;2.75;;;2.55;;
11691;SDS011;33659;42.672;23.354;2023-06-10T10:08:26;5.65;;;2.90;;
11691;SDS011;33659;42.672;23.354;2023-06-10T10:10:54;4.85;;;2.90;;
11691;SDS011;33659;42.672;23.354;2023-06-10T10:13:23;3.13;;;2.50;;
11691;SDS011;33659;42.672;23.354;2023-06-10T10:15:52;3.45;;;2.35;;
11691;SDS011;33659;42.672;23.354;2023-06-10T10:18:19;2.72;;;2.25;;
11691;SDS011;33659;42.672;23.354;2023-06-10T10:20:53;2.40;;;2.15;;
11691;SDS011;33659;42.672;23.354;2023-06-10T10:23:21;2.50;;;2.30;;
11691;SDS011;33659;42.672;23.354;2023-06-10T10:25:54;2.50;;;2.30;;
11691;SDS011;33659;42.672;23.354;2023-06-10T10:28:23;3.58;;;1.92;;
11691;SDS011;33659;42.672;23.354;2023-06-10T10:30:53;2.55;;;2.15;;
11691;SDS011;33659;42.672;23.354;2023-06-10T10:33:26;4.40;;;2.65;;
11691;SDS011;33659;42.672;23.354;2023-06-10T10:35:57;3.72;;;2.50;;
11691;SDS011;33659;42.672;23.354;2023-06-10T10:38:24;3.00;;;2.40;;
11691;SDS011;33659;42.672;23.354;2023-06-10T10:40:51;4.07;;;2.72;;
11691;SDS011;33659;42.672;23.354;2023-06-10T10:43:22;3.55;;;2.67;;
11691;SDS011;33659;42.672;23.354;2023-06-10T10:45:57;2.88;;;2.60;;
11691;SDS011;33659;42.672;23.354;2023-06-10T10:48:24;3.03;;;2.30;;
11691;SDS011;33659;42.672;23.354;2023-06-10T10:50:57;3.58;;;2.88;;
11691;SDS011;33659;42.672;23.354;2023-06-10T10:53:24;3.03;;;2.72;;
11691;SDS011;33659;42.672;23.354;2023-06-10T10:56:04;5.32;;;3.20;;
11691;SDS011;33659;42.672;23.354;2023-06-10T10:58:34;4.53;;;3.10;;
11691;SDS011;33659;42.672;23.354;2023-06-10T11:01:09;2.70;;;2.50;;
11691;SDS011;33659;42.672;23.354;2023-06-10T11:03:42;2.40;;;2.20;;
11691;SDS011;33659;42.672;23.354;2023-06-10T11:06:11;3.20;;;2.90;;
11691;SDS011;33659;42.672;23.354;2023-06-10T11:08:45;3.25;;;2.60;;
11691;SDS011;33659;42.672;23.354;2023-06-10T11:11:19;3.10;;;2.60;;
11691;SDS011;33659;42.672;23.354;2023-06-10T11:16:52;3.30;;;2.95;;
11691;SDS011;33659;42.672;23.354;2023-06-10T11:19:33;4.55;;;3.03;;
11691;SDS011;33659;42.672;23.354;2023-06-10T11:22:01;2.78;;;2.53;;
11691;SDS011;33659;42.672;23.354;2023-06-10T11:24:29;4.13;;;3.15;;
11691;SDS011;33659;42.672;23.354;2023-06-10T11:29:55;4.20;;;3.05;;
11691;SDS011;33659;42.672;23.354;2023-06-10T11:32:23;3.50;;;2.83;;
11691;SDS011;33659;42.672;23.354;2023-06-10T11:34:55;3.30;;;3.00;;
11691;SDS011;33659;42.672;23.354;2023-06-10T11:37:22;4.60;;;3.28;;
11691;SDS011;33659;42.672;23.354;2023-06-10T11:39:51;3.88;;;3.08;;
11691;SDS011;33659;42.672;23.354;2023-06-10T11:42:18;4.15;;;3.15;;
11691;SDS011;33659;42.672;23.354;2023-06-10T11:44:48;3.47;;;3.13;;
11691;SDS011;33659;42.672;23.354;2023-06-10T11:47:17;3.20;;;2.90;;
11691;SDS011;33659;42.672;23.354;2023-06-10T11:49:45;3.05;;;2.80;;
11691;SDS011;33659;42.672;23.354;2023-06-10T11:52:12;3.40;;;3.00;;
11691;SDS011;33659;42.672;23.354;2023-06-10T11:54:39;3.63;;;2.70;;
11691;SDS011;33659;42.672;23.354;2023-06-10T11:57:06;4.53;;;2.97;;
11691;SDS011;33659;42.672;23.354;2023-06-10T11:59:33;4.38;;;3.17;;
11691;SDS011;33659;42.672;23.354;2023-06-10T12:02:00;3.05;;;2.63;;
11691;SDS011;33659;42.672;23.354;2023-06-10T12:04:28;5.07;;;3.08;;
11691;SDS011;33659;42.672;23.354;2023-06-10T12:06:55;4.53;;;3.58;;
11691;SDS011;33659;42.672;23.354;2023-06-10T12:09:23;3.20;;;2.42;;
11691;SDS011;33659;42.672;23.354;2023-06-10T12:11:51;3.08;;;2.78;;
11691;SDS011;33659;42.672;23.354;2023-06-10T12:17:20;5.25;;;2.70;;
11691;SDS011;33659;42.672;23.354;2023-06-10T12:19:49;3.17;;;2.80;;
11691;SDS011;33659;42.672;23.354;2023-06-10T12:22:16;4.70;;;2.45;;
11691;SDS011;33659;42.672;23.354;2023-06-10T12:24:44;3.03;;;2.60;;
11691;SDS011;33659;42.672;23.354;2023-06-10T12:27:12;3.28;;;2.42;;
11691;SDS011;33659;42.672;23.354;2023-06-10T12:29:39;2.70;;;2.35;;
11691;SDS011;33659;42.672;23.354;2023-06-10T12:32:16;2.60;;;2.40;;
11691;SDS011;33659;42.672;23.354;2023-06-10T12:34:45;3.67;;;2.65;;
11691;SDS011;33659;42.672;23.354;2023-06-10T12:37:13;2.80;;;2.60;;
11691;SDS011;33659;42.672;23.354;2023-06-10T12:39:40;6.88;;;2.60;;
11691;SDS011;33659;42.672;23.354;2023-06-10T12:42:08;3.15;;;2.75;;
11691;SDS011;33659;42.672;23.354;2023-06-10T12:44:38;2.78;;;2.50;;
11691;SDS011;33659;42.672;23.354;2023-06-10T12:47:09;3.22;;;2.38;;
11691;SDS011;33659;42.672;23.354;2023-06-10T12:49:38;3.22;;;2.80;;
11691;SDS011;33659;42.672;23.354;2023-06-10T12:52:05;2.80;;;2.53;;
11691;SDS011;33659;42.672;23.354;2023-06-10T12:54:34;3.55;;;2.90;;
11691;SDS011;33659;42.672;23.354;2023-06-10T12:57:01;2.97;;;2.60;;
11691;SDS011;33659;42.672;23.354;2023-06-10T12:59:28;3.72;;;2.53;;
11691;SDS011;33659;42.672;23.354;2023-06-10T13:01:57;3.35;;;2.83;;
11691;SDS011;33659;42.672;23.354;2023-06-10T13:04:24;2.85;;;2.63;;
11691;SDS011;33659;42.672;23.354;2023-06-10T13:06:52;3.15;;;2.80;;
11691;SDS011;33659;42.672;23.354;2023-06-10T13:09:18;3.13;;;2.35;;
11691;SDS011;33659;42.672;23.354;2023-06-10T13:11:46;2.67;;;2.40;;
11691;SDS011;33659;42.672;23.354;2023-06-10T13:14:13;3.28;;;2.30;;
11691;SDS011;33659;42.672;23.354;2023-06-10T13:16:40;2.50;;;2.28;;
11691;SDS011;33659;42.672;23.354;2023-06-10T13:19:08;3.72;;;2.75;;
11691;SDS011;33659;42.672;23.354;2023-06-10T13:21:36;3.70;;;2.50;;
11691;SDS011;33659;42.672;23.354;2023-06-10T13:24:03;2.50;;;2.30;;
11691;SDS011;33659;42.672;23.354;2023-06-10T13:26:30;3.45;;;2.55;;
11691;SDS011;33659;42.672;23.354;2023-06-10T13:28:58;4.60;;;2.92;;
11691;SDS011;33659;42.672;23.354;2023-06-10T13:31:25;7.57;;;3.17;;
11691;SDS011;33659;42.672;23.354;2023-06-10T13:33:52;6.05;;;3.42;;
11691;SDS011;33659;42.672;23.354;2023-06-10T13:36:18;4.68;;;3.22;;
11691;SDS011;33659;42.672;23.354;2023-06-10T13:38:45;4.22;;;3.10;;
11691;SDS011;33659;42.672;23.354;2023-06-10T13:41:12;4.68;;;3.10;;
11691;SDS011;33659;42.672;23.354;2023-06-10T13:43:39;4.15;;;3.00;;
11691;SDS011;33659;42.672;23.354;2023-06-10T13:46:07;5.63;;;3.08;;
11691;SDS011;33659;42.672;23.354;2023-06-10T13:48:34;4.47;;;3.03;;
11691;SDS011;33659;42.672;23.354;2023-06-10T13:51:01;3.70;;;3.33;;
11691;SDS011;33659;42.672;23.354;2023-06-10T13:53:29;3.75;;;2.95;;
11691;SDS011;33659;42.672;23.354;2023-06-10T13:55:56;5.32;;;2.95;;
11691;SDS011;33659;42.672;23.354;2023-06-10T13:58:22;3.05;;;2.65;;
11691;SDS011;33659;42.672;23.354;2023-06-10T14:00:49;3.50;;;3.20;;
11691;SDS011;33659;42.672;23.354;2023-06-10T14:03:17;4.07;;;3.45;;
11691;SDS011;33659;42.672;23.354;2023-06-10T14:05:44;3.88;;;3.42;;
11691;SDS011;33659;42.672;23.354;2023-06-10T14:08:11;4.43;;;3.10;;
11691;SDS011;33659;42.672;23.354;2023-06-10T14:10:38;6.97;;;3.45;;
11691;SDS011;33659;42.672;23.354;2023-06-10T14:13:05;5.07;;;3.50;;
11691;SDS011;33659;42.672;23.354;2023-06-10T14:15:32;3.80;;;3.30;;
11691;SDS011;33659;42.672;23.354;2023-06-10T14:17:58;5.65;;;3.30;;
11691;SDS011;33659;42.672;23.354;2023-06-10T14:20:26;5.88;;;3.22;;
11691;SDS011;33659;42.672;23.354;2023-06-10T14:22:56;5.68;;;3.63;;
11691;SDS011;33659;42.672;23.354;2023-06-10T14:25:23;5.70;;;3.00;;
11691;SDS011;33659;42.672;23.354;2023-06-10T14:27:50;5.38;;;3.40;;
11691;SDS011;33659;42.672;23.354;2023-06-10T14:30:17;4.03;;;3.15;;
11691;SDS011;33659;42.672;23.354;2023-06-10T14:32:43;4.35;;;3.10;;
11691;SDS011;33659;42.672;23.354;2023-06-10T14:35:10;3.40;;;3.10;;
11691;SDS011;33659;42.672;23.354;2023-06-10T14:37:38;3.95;;;3.30;;
11691;SDS011;33659;42.672;23.354;2023-06-10T14:40:05;4.70;;;3.65;;
11691;SDS011;33659;42.672;23.354;2023-06-10T14:42:33;3.83;;;3.15;;
11691;SDS011;33659;42.672;23.354;2023-06-10T14:44:59;3.70;;;3.20;;